createdAt,value
2018-08-19T00:01:08.081Z,8.93
2018-08-19T00:03:36.221Z,10.20
2018-08-19T00:06:04.666Z,10.40
2018-08-19T00:08:32.793Z,10.23
2018-08-19T00:11:02.977Z,11.22
2018-08-19T00:13:31.105Z,9.30
2018-08-19T00:15:59.278Z,10.50
2018-08-19T00:18:27.425Z,11.47
2018-08-19T00:20:55.603Z,10.90
2018-08-19T00:23:23.753Z,10.50
2018-08-19T00:25:51.908Z,10.90
2018-08-19T00:28:20.844Z,10.53
2018-08-19T00:30:48.985Z,12.43
2018-08-19T00:33:17.111Z,10.76
2018-08-19T00:35:45.253Z,11.33
2018-08-19T00:38:14.881Z,10.60
2018-08-19T00:40:43.468Z,11.50
2018-08-19T00:43:12.157Z,12.53
2018-08-19T00:45:40.342Z,10.73
2018-08-19T00:48:11.082Z,11.23
2018-08-19T00:50:39.384Z,11.30
2018-08-19T00:53:08.380Z,11.90
2018-08-19T00:55:41.934Z,11.97
2018-08-19T00:58:14.959Z,12.20
2018-08-19T01:00:43.188Z,12.37
2018-08-19T01:03:11.750Z,12.90
2018-08-19T01:05:39.971Z,13.13
2018-08-19T01:08:09.097Z,11.47
2018-08-19T01:10:37.245Z,12.07
2018-08-19T01:13:05.368Z,11.00
2018-08-19T01:15:33.504Z,12.07
2018-08-19T01:18:01.649Z,12.03
2018-08-19T01:20:29.852Z,12.27
2018-08-19T01:22:57.956Z,13.10
2018-08-19T01:25:26.115Z,12.47
2018-08-19T01:27:54.245Z,12.73
2018-08-19T01:30:25.926Z,12.87
2018-08-19T01:32:54.087Z,11.56
2018-08-19T01:35:27.061Z,12.77
2018-08-19T01:37:55.170Z,13.10
2018-08-19T01:40:23.339Z,12.40
2018-08-19T01:42:51.493Z,11.10
2018-08-19T01:45:19.616Z,10.87
2018-08-19T01:47:47.757Z,12.97
2018-08-19T01:50:17.563Z,11.87
2018-08-19T01:52:48.096Z,13.20
2018-08-19T01:55:16.205Z,12.30
2018-08-19T01:57:48.446Z,11.73
2018-08-19T02:00:17.907Z,12.13
2018-08-19T02:03:03.220Z,11.07
2018-08-19T02:05:31.365Z,11.53
2018-08-19T02:08:01.933Z,10.70
2018-08-19T02:10:31.321Z,10.90
2018-08-19T02:13:00.164Z,13.23
2018-08-19T02:15:29.321Z,11.80
2018-08-19T02:17:59.572Z,11.60
2018-08-19T02:20:33.605Z,9.87
2018-08-19T02:23:03.898Z,9.63
2018-08-19T02:25:44.815Z,11.00
2018-08-19T02:28:13.601Z,11.50
2018-08-19T02:30:49.041Z,13.63
2018-08-19T02:33:17.193Z,12.05
2018-08-19T02:35:48.433Z,9.95
2018-08-19T02:38:16.589Z,11.48
2018-08-19T02:40:44.712Z,11.30
2018-08-19T02:43:12.836Z,12.00
2018-08-19T02:45:40.957Z,10.05
2018-08-19T02:48:09.114Z,11.87
2018-08-19T02:50:37.289Z,10.38
2018-08-19T02:53:05.810Z,11.30
2018-08-19T02:55:33.937Z,10.37
2018-08-19T02:58:07.380Z,9.63
2018-08-19T03:00:35.513Z,11.53
2018-08-19T03:03:03.642Z,9.80
2018-08-19T03:05:31.744Z,10.43
2018-08-19T03:08:00.213Z,9.63
2018-08-19T03:10:28.327Z,10.88
2018-08-19T03:12:56.469Z,10.95
2018-08-19T03:15:24.633Z,9.80
2018-08-19T03:17:52.757Z,10.03
2018-08-19T03:20:21.286Z,10.73
2018-08-19T03:22:49.380Z,10.63
2018-08-19T03:25:17.485Z,10.70
2018-08-19T03:27:45.606Z,9.97
2018-08-19T03:30:15.157Z,10.57
2018-08-19T03:32:49.617Z,11.43
2018-08-19T03:35:19.169Z,10.48
2018-08-19T03:37:47.670Z,10.70
2018-08-19T03:40:15.765Z,11.00
2018-08-19T03:42:43.886Z,10.27
2018-08-19T03:45:18.373Z,10.57
2018-08-19T03:47:46.902Z,10.23
2018-08-19T03:50:19.920Z,10.17
2018-08-19T03:52:48.069Z,11.60
2018-08-19T03:55:21.656Z,12.47
2018-08-19T03:57:50.200Z,12.80
2018-08-19T04:00:19.193Z,15.13
2018-08-19T04:02:47.438Z,11.28
2018-08-19T04:05:15.575Z,13.25
2018-08-19T04:07:44.267Z,12.93
2018-08-19T04:10:12.801Z,11.45
2018-08-19T04:12:40.929Z,14.63
2018-08-19T04:15:09.697Z,12.82
2018-08-19T04:17:37.801Z,12.50
2018-08-19T04:20:06.662Z,11.10
2018-08-19T04:22:34.798Z,12.97
2018-08-19T04:25:02.937Z,13.32
2018-08-19T04:27:31.054Z,12.90
2018-08-19T04:29:59.202Z,14.37
2018-08-19T04:32:30.408Z,12.58
2018-08-19T04:34:58.967Z,13.90
2018-08-19T04:37:27.316Z,14.83
2018-08-19T04:39:55.465Z,12.67
2018-08-19T04:42:23.812Z,12.87
2018-08-19T04:44:57.343Z,14.03
2018-08-19T04:47:28.789Z,13.13
2018-08-19T04:49:56.945Z,14.37
2018-08-19T04:52:25.462Z,13.53
2018-08-19T04:54:54.713Z,14.20
2018-08-19T04:57:22.922Z,15.28
2018-08-19T04:59:51.069Z,15.20
2018-08-19T05:02:20.161Z,14.43
2018-08-19T05:04:48.195Z,12.00
2018-08-19T05:07:16.298Z,12.53
2018-08-19T05:09:44.454Z,11.43
2018-08-19T05:12:12.645Z,10.93
2018-08-19T05:14:40.747Z,9.30
2018-08-19T05:17:08.892Z,11.00
2018-08-19T05:19:37.054Z,10.10
2018-08-19T05:22:10.682Z,11.95
2018-08-19T05:24:39.396Z,10.40
2018-08-19T05:27:08.413Z,10.87
2018-08-19T05:29:36.741Z,10.50
2018-08-19T05:32:05.144Z,10.47
2018-08-19T05:34:36.492Z,10.23
2018-08-19T05:37:04.993Z,10.30
2018-08-19T05:39:33.144Z,10.00
2018-08-19T05:42:13.220Z,9.90
2018-08-19T05:44:41.913Z,8.88
2018-08-19T05:47:11.145Z,9.27
2018-08-19T05:49:42.266Z,8.90
2018-08-19T05:52:15.633Z,8.87
2018-08-19T05:54:47.969Z,9.60
2018-08-19T05:57:17.838Z,11.30
2018-08-19T05:59:46.979Z,11.07
2018-08-19T06:02:15.160Z,11.60
2018-08-19T06:04:43.618Z,10.60
2018-08-19T06:07:11.732Z,10.87
2018-08-19T06:09:39.841Z,10.00
2018-08-19T06:12:07.983Z,10.43
2018-08-19T06:14:36.105Z,9.87
2018-08-19T06:17:05.120Z,10.27
2018-08-19T06:19:33.913Z,15.73
2018-08-19T06:22:02.207Z,11.13
2018-08-19T06:24:30.411Z,12.37
2018-08-19T06:26:58.482Z,12.50
2018-08-19T06:29:44.873Z,10.10
2018-08-19T06:32:20.843Z,9.47
2018-08-19T06:34:49.707Z,10.63
2018-08-19T06:37:18.107Z,11.53
2018-08-19T06:39:46.281Z,11.00
2018-08-19T06:42:14.377Z,11.90
2018-08-19T06:44:42.485Z,11.80
2018-08-19T06:47:10.667Z,11.83
2018-08-19T06:49:44.946Z,10.72
2018-08-19T06:52:13.145Z,10.70
2018-08-19T06:54:41.241Z,11.00
2018-08-19T06:57:10.176Z,13.08
2018-08-19T06:59:38.655Z,11.12
2018-08-19T07:02:07.653Z,11.97
2018-08-19T07:04:40.300Z,11.00
2018-08-19T07:07:10.263Z,11.93
2018-08-19T07:09:39.394Z,12.83
2018-08-19T07:12:11.633Z,12.17
2018-08-19T07:14:39.787Z,10.77
2018-08-19T07:17:07.944Z,12.27
2018-08-19T07:19:36.869Z,12.67
2018-08-19T07:22:06.307Z,16.80
2018-08-19T07:24:35.780Z,11.18
2018-08-19T07:27:03.935Z,12.10
2018-08-19T07:29:32.498Z,13.57
2018-08-19T07:32:00.601Z,13.67
2018-08-19T07:34:28.726Z,12.67
2018-08-19T07:36:58.066Z,12.30
2018-08-19T07:39:26.817Z,12.37
2018-08-19T07:41:55.092Z,15.60
2018-08-19T07:44:23.248Z,12.93
2018-08-19T07:46:51.358Z,13.20
2018-08-19T07:49:19.698Z,13.20
2018-08-19T07:51:47.842Z,12.93
2018-08-19T07:54:16.013Z,13.23
2018-08-19T07:56:44.179Z,13.07
2018-08-19T07:59:14.105Z,13.20
2018-08-19T08:01:42.307Z,12.47
2018-08-19T08:04:10.772Z,14.60
2018-08-19T08:06:38.922Z,14.38
2018-08-19T08:09:09.335Z,13.40
2018-08-19T08:11:37.477Z,13.43
2018-08-19T08:14:05.941Z,14.17
2018-08-19T08:16:41.575Z,13.97
2018-08-19T08:19:09.809Z,13.93
2018-08-19T08:21:38.090Z,13.60
2018-08-19T08:24:06.816Z,16.87
2018-08-19T08:26:37.509Z,13.97
2018-08-19T08:29:05.848Z,13.43
2018-08-19T08:31:41.021Z,15.00
2018-08-19T08:34:09.222Z,13.62
2018-08-19T08:36:37.356Z,15.45
2018-08-19T08:39:07.167Z,13.43
2018-08-19T08:41:35.321Z,14.57
2018-08-19T08:44:03.663Z,13.97
2018-08-19T08:46:31.817Z,13.03
2018-08-19T08:48:59.983Z,12.97
2018-08-19T08:51:28.106Z,14.38
2018-08-19T08:53:56.724Z,11.90
2018-08-19T08:56:25.016Z,12.63
2018-08-19T08:58:53.178Z,12.93
2018-08-19T09:01:21.303Z,11.47
2018-08-19T09:03:49.413Z,11.57
2018-08-19T09:06:22.938Z,10.60
2018-08-19T09:08:51.072Z,10.78
2018-08-19T09:11:19.195Z,11.63
2018-08-19T09:13:47.439Z,10.10
2018-08-19T09:16:15.586Z,11.10
2018-08-19T09:18:43.768Z,13.40
2018-08-19T09:21:11.962Z,10.13
2018-08-19T09:23:40.100Z,14.38
2018-08-19T09:26:08.350Z,14.23
2018-08-19T09:28:36.457Z,12.03
2018-08-19T09:31:04.759Z,10.90
2018-08-19T09:33:33.604Z,15.50
2018-08-19T09:36:01.739Z,10.07
2018-08-19T09:38:29.904Z,19.07
2018-08-19T09:40:58.144Z,10.73
2018-08-19T09:43:26.313Z,15.70
2018-08-19T09:45:54.483Z,10.30
2018-08-19T09:48:22.601Z,13.07
2018-08-19T09:50:50.700Z,9.17
2018-08-19T09:53:18.807Z,13.03
2018-08-19T09:56:19.771Z,12.07
2018-08-19T09:58:52.113Z,14.60
2018-08-19T10:01:25.568Z,16.40
2018-08-19T10:03:53.717Z,15.77
2018-08-19T10:06:21.867Z,14.43
2018-08-19T10:08:49.969Z,17.65
2018-08-19T10:11:18.117Z,17.27
2018-08-19T10:13:48.549Z,13.63
2018-08-19T10:16:16.753Z,14.70
2018-08-19T10:18:44.952Z,16.87
2018-08-19T10:21:18.307Z,16.50
2018-08-19T10:23:46.434Z,16.83
2018-08-19T10:26:14.602Z,16.73
2018-08-19T10:28:42.717Z,16.00
2018-08-19T10:31:16.315Z,14.80
2018-08-19T10:33:44.559Z,16.17
2018-08-19T10:36:12.681Z,13.17
2018-08-19T10:38:40.839Z,15.20
2018-08-19T10:41:08.949Z,15.50
2018-08-19T10:43:37.093Z,15.10
2018-08-19T10:46:05.285Z,13.90
2018-08-19T10:48:33.370Z,13.17
2018-08-19T10:51:02.626Z,13.80
2018-08-19T10:53:30.765Z,14.00
2018-08-19T10:56:01.648Z,14.53
2018-08-19T10:58:29.742Z,15.70
2018-08-19T11:00:57.874Z,14.43
2018-08-19T11:03:26.042Z,13.10
2018-08-19T11:05:55.473Z,13.03
2018-08-19T11:08:23.614Z,13.30
2018-08-19T11:10:51.728Z,14.43
2018-08-19T11:13:21.477Z,13.80
2018-08-19T11:15:55.649Z,13.63
2018-08-19T11:18:27.755Z,12.10
2018-08-19T11:21:59.549Z,13.13
2018-08-19T11:24:28.031Z,13.90
2018-08-19T11:27:01.222Z,12.30
2018-08-19T11:29:29.664Z,17.83
2018-08-19T11:31:57.775Z,13.43
2018-08-19T11:34:25.894Z,13.07
2018-08-19T11:36:54.019Z,14.77
2018-08-19T11:39:28.622Z,14.00
2018-08-19T11:41:58.485Z,14.40
2018-08-19T11:44:26.728Z,16.50
2018-08-19T11:46:54.848Z,15.03
2018-08-19T11:49:22.979Z,16.10
2018-08-19T11:52:00.415Z,17.53
2018-08-19T11:54:29.218Z,19.00
2018-08-19T11:57:03.719Z,18.37
2018-08-19T11:59:40.117Z,18.40
2018-08-19T12:02:10.659Z,18.23
2018-08-19T12:04:38.838Z,19.13
2018-08-19T12:07:06.985Z,22.20
2018-08-19T12:09:35.272Z,21.40
2018-08-19T12:12:03.451Z,19.00
2018-08-19T12:14:33.168Z,19.33
2018-08-19T12:17:01.991Z,20.37
2018-08-19T12:19:32.300Z,19.50
2018-08-19T12:22:02.617Z,23.17
2018-08-19T12:24:42.589Z,21.93
2018-08-19T12:27:12.090Z,21.70
2018-08-19T12:29:41.361Z,21.13
2018-08-19T12:32:16.152Z,22.57
2018-08-19T12:34:46.305Z,20.60
2018-08-19T12:37:15.568Z,20.60
2018-08-19T12:39:43.696Z,20.77
2018-08-19T12:42:11.876Z,23.00
2018-08-19T12:44:40.404Z,20.47
2018-08-19T12:47:18.202Z,24.43
2018-08-19T12:49:48.934Z,22.67
2018-08-19T12:52:19.155Z,21.30
2018-08-19T12:55:23.595Z,21.83
2018-08-19T12:57:57.204Z,23.70
2018-08-19T13:00:26.370Z,22.60
2018-08-19T13:02:54.729Z,24.73
2018-08-19T13:05:23.227Z,21.70
2018-08-19T13:07:51.519Z,22.30
2018-08-19T13:10:19.972Z,22.90
2018-08-19T13:12:56.575Z,22.23
2018-08-19T13:15:26.165Z,21.70
2018-08-19T13:17:54.330Z,21.33
2018-08-19T13:20:22.461Z,23.77
2018-08-19T13:22:55.883Z,23.40
2018-08-19T13:25:24.731Z,25.80
2018-08-19T13:27:52.886Z,23.13
2018-08-19T13:30:21.596Z,24.00
2018-08-19T13:32:50.425Z,24.83
2018-08-19T13:35:18.728Z,23.33
2018-08-19T13:37:46.911Z,25.30
2018-08-19T13:40:15.120Z,22.03
2018-08-19T13:42:43.395Z,20.87
2018-08-19T13:45:14.208Z,18.90
2018-08-19T13:47:43.653Z,20.17
2018-08-19T13:50:11.983Z,21.40
2018-08-19T13:52:40.542Z,20.93
2018-08-19T13:55:12.127Z,22.63
2018-08-19T13:57:40.253Z,20.90
2018-08-19T14:00:12.169Z,18.27
2018-08-19T14:02:40.318Z,19.97
2018-08-19T14:05:08.449Z,16.97
2018-08-19T14:07:36.590Z,19.40
2018-08-19T14:10:06.149Z,18.67
2018-08-19T14:12:34.313Z,16.50
2018-08-19T14:15:02.453Z,16.20
2018-08-19T14:17:30.597Z,16.70
2018-08-19T14:19:58.773Z,17.13
2018-08-19T14:22:27.593Z,16.80
2018-08-19T14:24:55.747Z,17.00
2018-08-19T14:27:24.865Z,14.70
2018-08-19T14:29:53.026Z,14.40
2018-08-19T14:32:32.501Z,15.37
2018-08-19T14:35:02.010Z,15.30
2018-08-19T14:37:30.643Z,13.43
2018-08-19T14:39:59.728Z,14.50
2018-08-19T14:42:27.861Z,15.00
2018-08-19T14:44:56.851Z,13.60
2018-08-19T14:47:25.154Z,13.43
2018-08-19T14:49:53.640Z,11.63
2018-08-19T14:52:21.778Z,12.00
2018-08-19T14:54:49.925Z,11.75
2018-08-19T14:57:18.045Z,12.77
2018-08-19T14:59:46.194Z,12.20
2018-08-19T15:02:14.323Z,11.25
2018-08-19T15:04:43.421Z,10.23
2018-08-19T15:07:11.654Z,12.40
2018-08-19T15:09:39.858Z,11.18
2018-08-19T15:12:14.334Z,10.27
2018-08-19T15:14:42.896Z,11.67
2018-08-19T15:17:11.588Z,11.10
2018-08-19T15:19:43.447Z,12.03
2018-08-19T15:22:11.582Z,10.43
2018-08-19T15:24:39.738Z,12.10
2018-08-19T15:27:07.915Z,11.23
2018-08-19T15:29:39.861Z,10.63
2018-08-19T15:32:08.101Z,10.77
2018-08-19T15:34:36.305Z,11.37
2018-08-19T15:37:04.462Z,10.10
2018-08-19T15:39:32.602Z,11.37
2018-08-19T15:42:00.757Z,10.60
2018-08-19T15:44:28.999Z,13.80
2018-08-19T15:46:57.156Z,12.37
2018-08-19T15:49:25.372Z,11.27
2018-08-19T15:51:53.689Z,12.80
2018-08-19T15:54:21.937Z,11.43
2018-08-19T15:56:50.044Z,11.20
2018-08-19T15:59:18.220Z,12.13
2018-08-19T16:01:46.345Z,10.87
2018-08-19T16:04:19.710Z,12.60
2018-08-19T16:06:49.090Z,10.20
2018-08-19T16:09:19.026Z,12.33
2018-08-19T16:11:47.809Z,10.70
2018-08-19T16:14:24.417Z,11.30
2018-08-19T16:16:53.259Z,11.77
2018-08-19T16:19:21.457Z,10.73
2018-08-19T16:21:51.764Z,10.40
2018-08-19T16:24:19.926Z,10.93
2018-08-19T16:26:48.956Z,12.43
2018-08-19T16:29:17.158Z,9.27
2018-08-19T16:31:45.482Z,9.87
2018-08-19T16:34:13.773Z,9.05
2018-08-19T16:36:41.941Z,10.20
2018-08-19T16:39:12.608Z,8.90
2018-08-19T16:41:40.719Z,9.70
2018-08-19T16:44:09.172Z,9.57
2018-08-19T16:46:37.368Z,9.33
2018-08-19T16:49:06.145Z,9.60
2018-08-19T16:51:34.355Z,8.20
2018-08-19T16:54:02.708Z,8.53
2018-08-19T16:56:31.009Z,8.00
2018-08-19T16:58:59.488Z,10.00
2018-08-19T17:01:27.727Z,7.23
2018-08-19T17:03:56.511Z,8.43
2018-08-19T17:06:25.505Z,7.42
2018-08-19T17:08:53.677Z,7.83
2018-08-19T17:11:21.848Z,7.80
2018-08-19T17:13:49.984Z,8.08
2018-08-19T17:16:18.111Z,8.13
2018-08-19T17:18:47.366Z,7.03
2018-08-19T17:21:15.508Z,8.00
2018-08-19T17:23:47.573Z,8.33
2018-08-19T17:26:18.793Z,7.83
2018-08-19T17:28:46.857Z,7.63
2018-08-19T17:31:15.019Z,7.60
2018-08-19T17:33:43.176Z,8.30
2018-08-19T17:36:11.325Z,7.93
2018-08-19T17:38:39.485Z,8.17
2018-08-19T17:41:07.604Z,7.87
2018-08-19T17:43:42.171Z,8.13
2018-08-19T17:46:13.289Z,8.20
2018-08-19T17:48:42.337Z,8.43
2018-08-19T17:51:23.102Z,8.53
2018-08-19T17:53:51.352Z,7.70
2018-08-19T17:56:19.744Z,7.90
2018-08-19T17:58:48.528Z,7.27
2018-08-19T18:01:17.022Z,7.23
2018-08-19T18:03:45.177Z,8.40
2018-08-19T18:06:13.345Z,8.30
2018-08-19T18:08:45.645Z,9.20
2018-08-19T18:11:13.797Z,8.60
2018-08-19T18:13:41.982Z,9.28
2018-08-19T18:16:10.134Z,7.63
2018-08-19T18:18:38.257Z,8.83
2018-08-19T18:21:06.435Z,8.80
2018-08-19T18:23:34.605Z,8.50
2018-08-19T18:26:02.757Z,9.10
2018-08-19T18:28:31.994Z,7.70
2018-08-19T18:31:09.295Z,9.53
2018-08-19T18:33:50.995Z,8.50
2018-08-19T18:36:20.481Z,8.60
2018-08-19T18:38:48.662Z,7.77
2018-08-19T18:41:25.091Z,9.07
2018-08-19T18:43:56.701Z,8.80
2018-08-19T18:46:25.171Z,11.37
2018-08-19T18:49:01.538Z,9.63
2018-08-19T18:51:30.742Z,12.93
2018-08-19T18:53:59.142Z,13.03
2018-08-19T18:56:28.337Z,12.30
2018-08-19T18:58:56.505Z,12.40
2018-08-19T19:01:24.637Z,13.93
2018-08-19T19:03:52.825Z,13.40
2018-08-19T19:06:20.998Z,14.40
2018-08-19T19:08:49.108Z,13.90
2018-08-19T19:11:20.072Z,15.70
2018-08-19T19:13:48.374Z,15.30
2018-08-19T19:16:18.672Z,16.67
2018-08-19T19:18:46.817Z,15.40
2018-08-19T19:21:14.934Z,14.50
2018-08-19T19:23:44.343Z,14.73
2018-08-19T19:26:12.500Z,13.77
2018-08-19T19:28:40.626Z,14.28
2018-08-19T19:31:16.037Z,14.70
2018-08-19T19:33:44.145Z,16.00
2018-08-19T19:36:18.313Z,14.20
2018-08-19T19:38:51.917Z,15.87
2018-08-19T19:41:23.065Z,15.13
2018-08-19T19:43:51.240Z,17.63
2018-08-19T19:46:19.394Z,13.95
2018-08-19T19:48:47.703Z,14.53
2018-08-19T19:51:15.838Z,14.87
2018-08-19T19:53:44.026Z,14.37
2018-08-19T19:56:13.187Z,23.43
2018-08-19T19:58:42.276Z,19.13
2018-08-19T20:01:10.431Z,16.27
2018-08-19T20:03:46.647Z,14.43
2018-08-19T20:06:14.796Z,15.10
2018-08-19T20:08:42.940Z,14.20
2018-08-19T20:11:19.254Z,12.40
2018-08-19T20:13:47.713Z,14.87
2018-08-19T20:16:15.871Z,14.23
2018-08-19T20:18:44.012Z,12.88
2018-08-19T20:21:17.542Z,15.30
2018-08-19T20:23:45.677Z,13.33
2018-08-19T20:26:13.863Z,12.37
2018-08-19T20:28:42.000Z,14.10
2018-08-19T20:31:10.173Z,14.13
2018-08-19T20:33:38.313Z,13.68
2018-08-19T20:36:06.435Z,15.13
2018-08-19T20:38:34.552Z,13.70
2018-08-19T20:41:02.672Z,13.40
2018-08-19T20:43:30.800Z,13.48
2018-08-19T20:45:58.943Z,13.23
2018-08-19T20:48:27.069Z,13.57
2018-08-19T20:50:55.213Z,13.10
2018-08-19T20:53:23.336Z,13.67
2018-08-19T20:55:51.468Z,13.00
2018-08-19T20:58:19.593Z,12.70
2018-08-19T21:00:47.704Z,13.93
2018-08-19T21:03:15.835Z,13.80
2018-08-19T21:05:43.947Z,14.17
2018-08-19T21:08:13.817Z,13.27
2018-08-19T21:10:43.800Z,12.90
2018-08-19T21:13:13.401Z,12.93
2018-08-19T21:15:46.837Z,12.45
2018-08-19T21:18:14.986Z,13.53
2018-08-19T21:20:43.520Z,11.48
2018-08-19T21:23:11.832Z,11.47
2018-08-19T21:25:59.863Z,10.93
2018-08-19T21:28:28.105Z,11.33
2018-08-19T21:30:56.316Z,10.60
2018-08-19T21:33:24.472Z,10.70
2018-08-19T21:35:54.097Z,10.30
2018-08-19T21:38:22.223Z,10.87
2018-08-19T21:40:53.924Z,8.57
2018-08-19T21:43:25.885Z,9.40
2018-08-19T21:45:53.997Z,9.13
2018-08-19T21:48:22.117Z,10.20
2018-08-19T21:50:50.282Z,7.93
2018-08-19T21:53:19.324Z,8.27
2018-08-19T21:55:48.730Z,9.20
2018-08-19T21:58:16.889Z,8.13
2018-08-19T22:00:48.224Z,9.33
2018-08-19T22:03:21.944Z,7.85
2018-08-19T22:05:52.292Z,8.80
2018-08-19T22:08:22.213Z,8.18
2018-08-19T22:10:50.367Z,7.60
2018-08-19T22:13:18.505Z,7.72
2018-08-19T22:15:47.257Z,8.83
2018-08-19T22:18:19.761Z,7.07
2018-08-19T22:21:02.137Z,8.90
2018-08-19T22:23:35.304Z,8.10
2018-08-19T22:26:03.457Z,8.20
2018-08-19T22:28:31.761Z,7.83
2018-08-19T22:31:10.005Z,8.73
2018-08-19T22:33:38.440Z,9.33
2018-08-19T22:36:06.597Z,8.43
2018-08-19T22:38:34.745Z,8.27
2018-08-19T22:41:02.878Z,7.83
2018-08-19T22:43:31.030Z,9.80
2018-08-19T22:45:59.183Z,8.67
2018-08-19T22:48:37.393Z,8.87
2018-08-19T22:51:06.065Z,9.10
2018-08-19T22:53:34.206Z,8.50
2018-08-19T22:56:02.486Z,8.67
2018-08-19T22:58:30.607Z,8.83
2018-08-19T23:00:58.767Z,9.23
2018-08-19T23:03:27.178Z,9.00
2018-08-19T23:05:55.365Z,8.38
2018-08-19T23:08:27.853Z,9.40
2018-08-19T23:10:57.656Z,9.47
2018-08-19T23:13:37.343Z,8.60
2018-08-19T23:16:07.524Z,9.27
2018-08-19T23:18:36.057Z,9.40
2018-08-19T23:21:04.246Z,9.10
2018-08-19T23:23:32.666Z,8.20
2018-08-19T23:26:00.933Z,9.73
2018-08-19T23:28:29.054Z,10.57
2018-08-19T23:30:57.635Z,9.73
2018-08-19T23:33:25.761Z,8.97
2018-08-19T23:35:53.970Z,10.35
2018-08-19T23:38:22.149Z,9.58
2018-08-19T23:40:50.333Z,8.33
2018-08-19T23:43:18.605Z,10.13
2018-08-19T23:45:46.770Z,9.93
2018-08-19T23:48:14.918Z,9.53
2018-08-19T23:50:43.047Z,9.77
2018-08-19T23:53:12.220Z,10.70
2018-08-19T23:55:40.775Z,9.90
2018-08-19T23:58:09.152Z,9.20
